Time;durP1;ratioP1;P1;durP2;ratioP2;P2;SDS_P1;SDS_P2;PMS_P1;PMS_P2;Temp;Humidity;BMP_temperature;BMP_pressure;BME280_temperature;BME280_humidity;BME280_pressure;Samples;Min_cycle;Max_cycle;Signal;HPM_P1;HPM_P2
2022/03/14 00:01:31;;;;;;;0.15;0.05;;;;;18.80;100542.00;;;;5096300;28;20446;-76
2022/03/14 00:04:01;;;;;;;0.88;0.15;;;;;18.80;100542.00;;;;5096923;28;20045;-77
2022/03/14 00:06:31;;;;;;;0.00;0.00;;;;;18.80;100534.00;;;;5097740;28;20475;-76
2022/03/14 00:09:06;;;;;;;0.00;0.00;;;;;18.80;100556.00;;;;5092233;28;20101;-77
2022/03/14 00:11:37;;;;;;;0.00;0.00;;;;;18.80;100539.00;;;;5089376;28;20035;-76
2022/03/14 00:14:07;;;;;;;0.00;0.00;;;;;18.80;100545.00;;;;5089512;28;20047;-76
2022/03/14 00:16:45;;;;;;;0.00;0.00;;;;;18.80;100539.00;;;;5089406;28;20056;-77
2022/03/14 00:19:15;;;;;;;0.00;0.00;;;;;18.80;100548.00;;;;5089866;28;20054;-74
2022/03/14 00:21:45;;;;;;;0.00;0.00;;;;;18.90;100574.00;;;;5089068;28;20502;-77
2022/03/14 00:24:15;;;;;;;0.00;0.00;;;;;18.90;100566.00;;;;5089973;28;20039;-76
2022/03/14 00:26:45;;;;;;;0.00;0.00;;;;;18.90;100561.00;;;;5089614;28;20052;-77
2022/03/14 00:29:17;;;;;;;0.00;0.00;;;;;19.00;100568.00;;;;5092379;28;20040;-77
2022/03/14 00:31:47;;;;;;;0.55;0.52;;;;;19.00;100566.00;;;;5097382;28;20048;-77
2022/03/14 00:34:16;;;;;;;0.00;0.00;;;;;18.90;100566.00;;;;5114147;27;20050;-76
2022/03/14 00:36:47;;;;;;;0.00;0.00;;;;;18.90;100561.00;;;;5098594;28;20050;-78
2022/03/14 00:39:18;;;;;;;0.00;0.00;;;;;18.80;100556.00;;;;5117032;27;20048;-78
2022/03/14 00:41:47;;;;;;;;;;;;;18.80;100560.00;;;;5109732;27;20051;-77
2022/03/14 00:44:17;;;;;;;0.00;0.00;;;;;18.70;100544.00;;;;5109155;28;19930;-77
2022/03/14 00:46:46;;;;;;;0.00;0.00;;;;;18.70;100555.00;;;;5109313;28;20050;-78
2022/03/14 00:49:16;;;;;;;0.00;0.00;;;;;18.60;100564.00;;;;5107916;28;20551;-77
2022/03/14 00:51:45;;;;;;;0.15;0.15;;;;;18.60;100563.00;;;;5107673;28;20081;-77
2022/03/14 00:54:15;;;;;;;0.00;0.00;;;;;18.70;100563.00;;;;5125029;27;20435;-78
2022/03/14 00:56:44;;;;;;;0.00;0.00;;;;;18.70;100563.00;;;;5109199;27;20047;-78
2022/03/14 00:59:13;;;;;;;0.00;0.00;;;;;18.70;100553.00;;;;5108901;28;20042;-77
2022/03/14 01:01:43;;;;;;;0.00;0.00;;;;;18.70;100570.00;;;;5124063;27;20039;-78
2022/03/14 01:04:12;;;;;;;0.00;0.00;;;;;18.70;100557.00;;;;5107933;28;20101;-77
2022/03/14 01:06:42;;;;;;;0.00;0.00;;;;;18.60;100540.00;;;;5109471;28;20483;-77
2022/03/14 01:09:11;;;;;;;0.00;0.00;;;;;18.50;100550.00;;;;5108323;28;20036;-77
2022/03/14 01:11:42;;;;;;;0.00;0.00;;;;;18.40;100555.00;;;;5109835;28;20422;-77
2022/03/14 01:14:13;;;;;;;0.00;0.00;;;;;18.50;100542.00;;;;5107632;28;20341;-77
2022/03/14 01:16:42;;;;;;;0.00;0.00;;;;;18.50;100542.00;;;;5105870;28;20054;-77
2022/03/14 01:19:12;;;;;;;0.00;0.00;;;;;18.50;100527.00;;;;5107354;27;20047;-77
2022/03/14 01:21:41;;;;;;;0.00;0.00;;;;;18.50;100532.00;;;;5135637;27;20055;-78
2022/03/14 01:24:11;;;;;;;0.00;0.00;;;;;18.40;100550.00;;;;5126891;28;20043;-78
2022/03/14 01:26:40;;;;;;;0.00;0.00;;;;;18.40;100541.00;;;;5112367;28;20046;-77
2022/03/14 01:29:10;;;;;;;0.00;0.00;;;;;18.40;100537.00;;;;5112324;28;20700;-78
2022/03/14 01:31:40;;;;;;;6.32;1.95;;;;;18.30;100531.00;;;;5114503;28;20047;-77
2022/03/14 01:34:09;;;;;;;0.00;0.00;;;;;18.40;100516.00;;;;5113707;28;20046;-77
2022/03/14 01:36:39;;;;;;;0.00;0.00;;;;;18.40;100513.00;;;;5108097;28;20039;-77
2022/03/14 01:39:08;;;;;;;0.00;0.00;;;;;18.20;100512.00;;;;5108147;28;20048;-77
2022/03/14 01:41:38;;;;;;;0.00;0.00;;;;;18.10;100520.00;;;;5107425;28;20047;-78
2022/03/14 01:44:07;;;;;;;0.00;0.00;;;;;18.00;100520.00;;;;5108784;28;20040;-78
2022/03/14 01:46:37;;;;;;;0.00;0.00;;;;;18.00;100522.00;;;;5108208;28;20585;-78
2022/03/14 01:49:06;;;;;;;0.00;0.00;;;;;18.00;100505.00;;;;5108142;28;20035;-78
2022/03/14 01:51:35;;;;;;;0.00;0.00;;;;;17.90;100509.00;;;;5108225;28;20056;-78
2022/03/14 01:54:05;;;;;;;0.00;0.00;;;;;17.90;100526.00;;;;5107851;28;20062;-77
2022/03/14 01:56:38;;;;;;;0.00;0.00;;;;;17.80;100526.00;;;;5108565;28;20046;-77
2022/03/14 01:59:08;;;;;;;0.00;0.00;;;;;17.80;100514.00;;;;5109184;28;20044;-75
2022/03/14 02:01:39;;;;;;;0.00;0.00;;;;;17.70;100522.00;;;;5107460;28;20051;-76
2022/03/14 02:04:09;;;;;;;0.00;0.00;;;;;17.70;100516.00;;;;5107618;28;20104;-77
2022/03/14 02:06:39;;;;;;;0.00;0.00;;;;;17.60;100497.00;;;;5107811;28;20055;-76
2022/03/14 02:09:09;;;;;;;0.00;0.00;;;;;17.60;100493.00;;;;5107900;28;20047;-76
2022/03/14 02:11:49;;;;;;;0.00;0.00;;;;;17.50;100494.00;;;;5106321;28;20047;-76
2022/03/14 02:14:19;;;;;;;0.00;0.00;;;;;17.50;100502.00;;;;5122134;27;20074;-76
2022/03/14 02:16:49;;;;;;;0.00;0.00;;;;;17.40;100480.00;;;;5107182;28;20052;-76
2022/03/14 02:19:20;;;;;;;0.00;0.00;;;;;17.40;100493.00;;;;5123496;27;20058;-76
2022/03/14 02:21:49;;;;;;;0.00;0.00;;;;;17.40;100509.00;;;;5107582;28;20047;-76
2022/03/14 02:24:19;;;;;;;0.00;0.00;;;;;17.40;100487.00;;;;5123120;27;20054;-76
2022/03/14 02:26:48;;;;;;;0.00;0.00;;;;;17.30;100489.00;;;;5108183;28;20031;-77
2022/03/14 02:29:19;;;;;;;0.00;0.00;;;;;17.30;100505.00;;;;5107633;28;20039;-77
2022/03/14 02:31:49;;;;;;;0.00;0.00;;;;;17.30;100507.00;;;;5106086;28;20422;-77
2022/03/14 02:34:18;;;;;;;0.00;0.00;;;;;17.40;100503.00;;;;5107226;28;20044;-76
2022/03/14 02:36:48;;;;;;;0.00;0.00;;;;;17.50;100521.00;;;;5106633;28;20057;-76
2022/03/14 02:39:18;;;;;;;0.00;0.00;;;;;17.50;100495.00;;;;5107086;28;20040;-77
2022/03/14 02:41:48;;;;;;;0.00;0.00;;;;;17.50;100503.00;;;;5107326;28;20043;-78
2022/03/14 02:44:18;;;;;;;0.00;0.00;;;;;17.60;100488.00;;;;5105579;28;20078;-75
2022/03/14 02:46:49;;;;;;;0.00;0.00;;;;;17.60;100475.00;;;;5107303;28;20043;-76
2022/03/14 02:49:19;;;;;;;0.00;0.00;;;;;17.60;100494.00;;;;5107879;28;20122;-77
2022/03/14 02:51:50;;;;;;;0.00;0.00;;;;;17.60;100473.00;;;;5104907;28;20050;-78
2022/03/14 02:54:19;;;;;;;0.00;0.00;;;;;17.60;100494.00;;;;5106485;28;20056;-77
2022/03/14 02:56:50;;;;;;;0.00;0.00;;;;;17.50;100485.00;;;;5122888;27;20062;-77
2022/03/14 02:59:20;;;;;;;0.00;0.00;;;;;17.50;100465.00;;;;5107506;28;20051;-77
2022/03/14 03:01:49;;;;;;;0.00;0.00;;;;;17.40;100466.00;;;;5105377;28;20457;-77
2022/03/14 03:04:19;;;;;;;0.00;0.00;;;;;17.40;100490.00;;;;5106372;28;20040;-78
2022/03/14 03:06:48;;;;;;;0.00;0.00;;;;;17.30;100484.00;;;;5105918;28;20050;-77
2022/03/14 03:09:18;;;;;;;0.00;0.00;;;;;17.30;100495.00;;;;5106595;28;20036;-77
2022/03/14 03:11:47;;;;;;;0.00;0.00;;;;;17.30;100479.00;;;;5106449;28;20048;-76
2022/03/14 03:14:16;;;;;;;0.00;0.00;;;;;17.30;100487.00;;;;5106790;28;20031;-75
2022/03/14 03:16:47;;;;;;;0.00;0.00;;;;;17.30;100481.00;;;;5106439;28;20055;-75
2022/03/14 03:19:18;;;;;;;0.00;0.00;;;;;17.30;100511.00;;;;5107090;28;20122;-74
2022/03/14 03:21:47;;;;;;;0.00;0.00;;;;;17.20;100485.00;;;;5106178;28;20043;-74
2022/03/14 03:24:16;;;;;;;0.00;0.00;;;;;17.20;100489.00;;;;5107476;28;20055;-74
2022/03/14 03:26:46;;;;;;;0.00;0.00;;;;;17.20;100500.00;;;;5106826;28;20040;-74
2022/03/14 03:29:15;;;;;;;0.00;0.00;;;;;17.20;100495.00;;;;5121623;28;20048;-75
2022/03/14 03:31:44;;;;;;;0.00;0.00;;;;;17.20;100480.00;;;;5107136;28;20044;-75
2022/03/14 03:34:14;;;;;;;0.00;0.00;;;;;17.10;100478.00;;;;5105411;28;20051;-75
2022/03/14 03:36:43;;;;;;;0.00;0.00;;;;;17.20;100503.00;;;;5106638;28;20108;-75
2022/03/14 03:39:13;;;;;;;0.00;0.00;;;;;17.10;100479.00;;;;5106242;28;20078;-75
2022/03/14 03:41:42;;;;;;;0.00;0.00;;;;;17.10;100485.00;;;;5106663;28;20047;-75
2022/03/14 03:44:12;;;;;;;0.00;0.00;;;;;17.10;100492.00;;;;5106351;28;20032;-77
2022/03/14 03:46:41;;;;;;;0.00;0.00;;;;;17.10;100486.00;;;;5106602;28;20051;-77
2022/03/14 03:49:11;;;;;;;0.00;0.00;;;;;17.20;100476.00;;;;5106333;28;20421;-77
2022/03/14 03:51:42;;;;;;;0.00;0.00;;;;;17.20;100474.00;;;;5106540;28;20044;-77
2022/03/14 03:54:12;;;;;;;0.00;0.00;;;;;17.20;100476.00;;;;5121561;28;20907;-77
2022/03/14 03:56:41;;;;;;;0.00;0.00;;;;;17.30;100479.00;;;;5106481;28;20043;-77
2022/03/14 03:59:10;;;;;;;0.00;0.00;;;;;17.30;100489.00;;;;5106812;28;20600;-77
2022/03/14 04:01:41;;;;;;;0.00;0.00;;;;;17.40;100490.00;;;;5106224;28;20038;-77
2022/03/14 04:04:11;;;;;;;0.00;0.00;;;;;17.40;100484.00;;;;5107421;28;20118;-77
2022/03/14 04:06:42;;;;;;;0.00;0.00;;;;;17.50;100475.00;;;;5109699;27;20043;-77
2022/03/14 04:09:11;;;;;;;0.00;0.00;;;;;17.50;100491.00;;;;5109849;28;20097;-77
2022/03/14 04:11:41;;;;;;;0.00;0.00;;;;;17.60;100488.00;;;;5109882;28;20105;-77
2022/03/14 04:14:12;;;;;;;0.00;0.00;;;;;17.60;100475.00;;;;5109699;28;20059;-77
2022/03/14 04:16:42;;;;;;;0.00;0.00;;;;;17.70;100462.00;;;;5110005;28;20100;-77
2022/03/14 04:19:12;;;;;;;0.00;0.00;;;;;17.70;100457.00;;;;5125603;27;20083;-78
2022/03/14 04:21:42;;;;;;;0.00;0.00;;;;;17.80;100461.00;;;;5110168;28;20080;-78
2022/03/14 04:24:11;;;;;;;0.00;0.00;;;;;17.80;100468.00;;;;5108422;28;20048;-77
2022/03/14 04:26:40;;;;;;;0.00;0.00;;;;;17.90;100443.00;;;;5124227;27;20048;-77
2022/03/14 04:29:09;;;;;;;0.00;0.00;;;;;17.90;100440.00;;;;5125183;27;20051;-77
2022/03/14 04:31:39;;;;;;;0.00;0.00;;;;;18.00;100445.00;;;;5108159;28;20047;-78
2022/03/14 04:34:10;;;;;;;0.00;0.00;;;;;18.00;100452.00;;;;5105240;28;20047;-77
2022/03/14 04:36:39;;;;;;;0.00;0.00;;;;;18.00;100447.00;;;;5105328;28;20043;-77
2022/03/14 04:39:08;;;;;;;0.00;0.00;;;;;18.00;100435.00;;;;5105335;28;20040;-78
2022/03/14 04:41:38;;;;;;;0.00;0.00;;;;;18.10;100422.00;;;;5109100;28;20040;-77
2022/03/14 04:44:07;;;;;;;0.00;0.00;;;;;18.10;100436.00;;;;5109108;28;20054;-77
2022/03/14 04:46:37;;;;;;;0.00;0.00;;;;;18.10;100433.00;;;;5108096;27;20055;-78
2022/03/14 04:49:07;;;;;;;0.00;0.00;;;;;18.10;100436.00;;;;5108933;28;20126;-77
2022/03/14 04:51:37;;;;;;;0.00;0.00;;;;;18.10;100430.00;;;;5109170;28;20082;-77
2022/03/14 04:54:07;;;;;;;0.00;0.00;;;;;18.10;100435.00;;;;5107822;28;20048;-76
2022/03/14 04:56:36;;;;;;;0.00;0.00;;;;;18.20;100417.00;;;;5109439;28;20043;-75
2022/03/14 04:59:05;;;;;;;0.00;0.00;;;;;18.10;100439.00;;;;5109298;28;20047;-75
2022/03/14 05:01:35;;;;;;;0.00;0.00;;;;;18.10;100435.00;;;;5108681;28;20062;-75
2022/03/14 05:04:04;;;;;;;0.00;0.00;;;;;18.10;100423.00;;;;5108921;28;20491;-76
2022/03/14 05:06:34;;;;;;;0.00;0.00;;;;;18.20;100439.00;;;;5109202;28;20075;-76
2022/03/14 05:09:05;;;;;;;0.00;0.00;;;;;18.20;100430.00;;;;5124482;27;20035;-76
2022/03/14 05:11:35;;;;;;;0.00;0.00;;;;;18.20;100424.00;;;;5108947;27;20069;-75
2022/03/14 05:14:10;;;;;;;0.00;0.00;;;;;18.20;100426.00;;;;5109256;28;20044;-76
2022/03/14 05:16:39;;;;;;;0.00;0.00;;;;;18.20;100415.00;;;;5107883;28;20529;-75
2022/03/14 05:19:09;;;;;;;0.00;0.00;;;;;18.20;100419.00;;;;5107349;28;20065;-76
2022/03/14 05:21:39;;;;;;;0.00;0.00;;;;;18.20;100421.00;;;;5109121;28;20035;-75
2022/03/14 05:24:09;;;;;;;0.00;0.00;;;;;18.20;100417.00;;;;5108583;28;20047;-76
2022/03/14 05:26:39;;;;;;;0.00;0.00;;;;;18.20;100418.00;;;;5108670;28;20131;-75
2022/03/14 05:29:12;;;;;;;0.00;0.00;;;;;18.20;100423.00;;;;5108965;28;20043;-76
2022/03/14 05:31:43;;;;;;;0.00;0.00;;;;;18.30;100409.00;;;;5107883;28;20076;-76
2022/03/14 05:34:12;;;;;;;0.00;0.00;;;;;18.30;100409.00;;;;5107414;28;20047;-76
2022/03/14 05:36:42;;;;;;;0.00;0.00;;;;;18.30;100405.00;;;;5108194;28;20063;-76
2022/03/14 05:39:11;;;;;;;0.00;0.00;;;;;18.30;100414.00;;;;5124298;27;20048;-75
2022/03/14 05:41:41;;;;;;;0.00;0.00;;;;;18.40;100398.00;;;;5108240;28;20050;-76
2022/03/14 05:44:10;;;;;;;0.00;0.00;;;;;18.30;100393.00;;;;5108348;28;20043;-75
2022/03/14 05:46:40;;;;;;;0.00;0.00;;;;;18.30;100408.00;;;;5123668;27;20043;-76
2022/03/14 05:49:09;;;;;;;0.00;0.00;;;;;18.30;100398.00;;;;5107666;28;20090;-76
2022/03/14 05:51:39;;;;;;;0.00;0.00;;;;;18.30;100387.00;;;;5108049;28;20089;-76
2022/03/14 05:54:08;;;;;;;0.00;0.00;;;;;18.30;100404.00;;;;5108394;28;20051;-76
2022/03/14 05:56:38;;;;;;;0.00;0.00;;;;;18.30;100408.00;;;;5107713;28;20387;-76
2022/03/14 05:59:09;;;;;;;0.00;0.00;;;;;18.30;100394.00;;;;5108294;28;20051;-76
2022/03/14 06:01:40;;;;;;;0.00;0.00;;;;;18.30;100389.00;;;;5107609;28;20065;-76
2022/03/14 06:04:10;;;;;;;0.00;0.00;;;;;18.30;100394.00;;;;5107994;28;20502;-76
2022/03/14 06:06:40;;;;;;;0.00;0.00;;;;;18.40;100406.00;;;;5108440;28;20047;-76
2022/03/14 06:09:09;;;;;;;0.00;0.00;;;;;18.40;100389.00;;;;5106215;28;20039;-76
2022/03/14 06:11:39;;;;;;;0.00;0.00;;;;;18.40;100393.00;;;;5107424;27;20084;-76
2022/03/14 06:14:11;;;;;;;0.00;0.00;;;;;18.40;100396.00;;;;5107274;28;20040;-76
2022/03/14 06:16:40;;;;;;;0.00;0.00;;;;;18.40;100391.00;;;;5107283;28;20078;-76
2022/03/14 06:19:10;;;;;;;0.00;0.00;;;;;18.40;100363.00;;;;5108180;28;20055;-76
2022/03/14 06:21:39;;;;;;;0.00;0.00;;;;;18.40;100388.00;;;;5108102;28;20418;-76
2022/03/14 06:24:09;;;;;;;0.00;0.00;;;;;18.40;100368.00;;;;5107996;28;20495;-76
2022/03/14 06:26:41;;;;;;;0.00;0.00;;;;;18.40;100370.00;;;;5106800;28;20134;-76
2022/03/14 06:29:11;;;;;;;0.00;0.00;;;;;18.40;100393.00;;;;5107236;28;20077;-76
2022/03/14 06:31:40;;;;;;;0.00;0.00;;;;;18.40;100402.00;;;;5089981;28;20082;-76
2022/03/14 06:34:10;;;;;;;0.00;0.00;;;;;18.40;100376.00;;;;5107036;28;20043;-76
2022/03/14 06:36:39;;;;;;;0.00;0.00;;;;;18.40;100372.00;;;;5105606;28;20112;-76
2022/03/14 06:39:08;;;;;;;0.00;0.00;;;;;18.40;100370.00;;;;5107355;28;20527;-76
2022/03/14 06:41:38;;;;;;;0.00;0.00;;;;;18.40;100364.00;;;;5107141;28;20047;-76
2022/03/14 06:44:08;;;;;;;0.00;0.00;;;;;18.40;100370.00;;;;5107183;28;20039;-76
2022/03/14 06:46:37;;;;;;;0.00;0.00;;;;;18.40;100365.00;;;;5123215;27;20051;-76
2022/03/14 06:49:07;;;;;;;0.00;0.00;;;;;18.40;100370.00;;;;5106929;28;20101;-76
2022/03/14 06:51:37;;;;;;;0.00;0.00;;;;;18.40;100364.00;;;;5105600;28;20052;-76
2022/03/14 06:54:06;;;;;;;0.00;0.00;;;;;18.40;100370.00;;;;5106854;28;20146;-76
2022/03/14 06:56:41;;;;;;;0.00;0.00;;;;;18.40;100364.00;;;;5107631;28;20160;-76
2022/03/14 06:59:12;;;;;;;0.00;0.00;;;;;18.40;100359.00;;;;5105604;28;20051;-76
2022/03/14 07:01:41;;;;;;;0.00;0.00;;;;;18.40;100350.00;;;;5106626;28;20036;-76
2022/03/14 07:04:11;;;;;;;0.00;0.00;;;;;18.40;100361.00;;;;5106863;28;20043;-76
2022/03/14 07:06:41;;;;;;;0.00;0.00;;;;;18.40;100343.00;;;;5122746;27;20048;-76
2022/03/14 07:09:10;;;;;;;0.00;0.00;;;;;18.40;100340.00;;;;5106810;28;20047;-76
2022/03/14 07:11:39;;;;;;;0.00;0.00;;;;;18.40;100347.00;;;;5107226;28;20097;-76
2022/03/14 07:14:09;;;;;;;0.00;0.00;;;;;18.40;100372.00;;;;5106556;28;20046;-76
2022/03/14 07:16:38;;;;;;;0.00;0.00;;;;;18.40;100365.00;;;;5106473;28;20051;-76
2022/03/14 07:19:08;;;;;;;0.00;0.00;;;;;18.40;100372.00;;;;5106799;28;20062;-76
2022/03/14 07:21:38;;;;;;;0.00;0.00;;;;;18.40;100374.00;;;;5106354;28;20035;-76
2022/03/14 07:24:08;;;;;;;0.00;0.00;;;;;18.40;100361.00;;;;5106961;28;20043;-76
2022/03/14 07:26:37;;;;;;;0.00;0.00;;;;;18.40;100363.00;;;;5106479;28;20035;-76
2022/03/14 07:29:07;;;;;;;0.00;0.00;;;;;18.50;100360.00;;;;5107107;28;20058;-76
2022/03/14 07:31:37;;;;;;;0.00;0.00;;;;;18.50;100357.00;;;;5122704;28;20425;-76
2022/03/14 07:34:07;;;;;;;0.00;0.00;;;;;18.50;100351.00;;;;5106480;28;20046;-76
2022/03/14 07:36:37;;;;;;;0.00;0.00;;;;;18.50;100369.00;;;;5106750;28;20039;-76
2022/03/14 07:39:06;;;;;;;0.00;0.00;;;;;18.50;100366.00;;;;5123607;27;20067;-76
2022/03/14 07:41:36;;;;;;;0.00;0.00;;;;;18.50;100369.00;;;;5126776;27;20506;-76
2022/03/14 07:44:06;;;;;;;0.00;0.00;;;;;18.50;100381.00;;;;5109567;28;20067;-76
2022/03/14 07:46:35;;;;;;;0.00;0.00;;;;;18.50;100367.00;;;;5108830;28;20051;-76
2022/03/14 07:49:05;;;;;;;0.00;0.00;;;;;18.40;100362.00;;;;5110691;28;20078;-76
2022/03/14 07:51:35;;;;;;;0.00;0.00;;;;;18.40;100367.00;;;;5110387;28;20051;-76
2022/03/14 07:54:05;;;;;;;0.00;0.00;;;;;18.40;100361.00;;;;5108842;28;20052;-76
2022/03/14 07:56:34;;;;;;;0.00;0.00;;;;;18.50;100369.00;;;;5109092;28;20043;-76
2022/03/14 07:59:03;;;;;;;0.00;0.00;;;;;18.40;100363.00;;;;5110173;28;20039;-76
2022/03/14 08:01:33;;;;;;;0.00;0.00;;;;;18.50;100378.00;;;;5110296;28;20081;-76
2022/03/14 08:04:03;;;;;;;0.00;0.00;;;;;18.50;100374.00;;;;5109916;28;20055;-77
2022/03/14 08:06:35;;;;;;;0.00;0.00;;;;;18.50;100369.00;;;;5125185;27;20047;-77
2022/03/14 08:09:06;;;;;;;0.00;0.00;;;;;18.50;100386.00;;;;5108775;28;20058;-76
2022/03/14 08:11:38;;;;;;;0.00;0.00;;;;;18.50;100393.00;;;;5110282;28;20047;-76
2022/03/14 08:14:08;;;;;;;0.00;0.00;;;;;18.50;100372.00;;;;5110172;28;20050;-76
2022/03/14 08:16:37;;;;;;;0.00;0.00;;;;;18.50;100403.00;;;;5110226;28;20066;-76
2022/03/14 08:19:07;;;;;;;0.00;0.00;;;;;18.50;100387.00;;;;5110220;27;20047;-76
2022/03/14 08:21:36;;;;;;;0.00;0.00;;;;;18.50;100391.00;;;;5109477;28;20044;-76
2022/03/14 08:24:06;;;;;;;0.00;0.00;;;;;18.50;100382.00;;;;5110011;27;20051;-76
2022/03/14 08:26:38;;;;;;;0.00;0.00;;;;;18.50;100401.00;;;;5109379;28;20039;-76
2022/03/14 08:29:11;;;;;;;0.00;0.00;;;;;18.50;100400.00;;;;5125284;27;20040;-76
2022/03/14 08:31:41;;;;;;;0.00;0.00;;;;;18.60;100386.00;;;;5109655;28;20068;-76
2022/03/14 08:34:11;;;;;;;0.00;0.00;;;;;18.50;100404.00;;;;5125166;27;20520;-76
2022/03/14 08:36:41;;;;;;;0.00;0.00;;;;;18.60;100399.00;;;;5109585;28;20042;-76
2022/03/14 08:39:11;;;;;;;0.00;0.00;;;;;18.50;100404.00;;;;5109685;28;20042;-76
2022/03/14 08:41:41;;;;;;;0.00;0.00;;;;;18.50;100391.00;;;;5109592;28;20039;-76
2022/03/14 08:44:11;;;;;;;0.00;0.00;;;;;18.50;100392.00;;;;5109981;28;20785;-77
2022/03/14 08:46:40;;;;;;;0.00;0.00;;;;;18.60;100424.00;;;;5109403;28;20048;-76
2022/03/14 08:49:10;;;;;;;0.00;0.00;;;;;18.60;100419.00;;;;5109237;28;20105;-76
2022/03/14 08:51:40;;;;;;;0.00;0.00;;;;;18.60;100397.00;;;;5108978;28;20054;-76
2022/03/14 08:54:09;;;;;;;0.00;0.00;;;;;18.60;100434.00;;;;5108251;28;20043;-75
2022/03/14 08:56:39;;;;;;;0.00;0.00;;;;;18.60;100426.00;;;;5108276;27;20418;-75
2022/03/14 08:59:12;;;;;;;0.00;0.00;;;;;18.60;100432.00;;;;5105598;28;20031;-77
2022/03/14 09:01:42;;;;;;;0.00;0.00;;;;;18.60;100437.00;;;;5121657;27;20032;-77
2022/03/14 09:04:12;;;;;;;0.00;0.00;;;;;18.70;100431.00;;;;5125213;27;20035;-77
2022/03/14 09:06:42;;;;;;;0.00;0.00;;;;;18.70;100417.00;;;;5108502;28;20042;-76
2022/03/14 09:09:12;;;;;;;0.00;0.00;;;;;18.80;100434.00;;;;5108468;28;20044;-76
2022/03/14 09:11:45;;;;;;;0.00;0.00;;;;;18.70;100439.00;;;;5108631;28;20043;-76
2022/03/14 09:14:14;;;;;;;0.00;0.00;;;;;18.70;100435.00;;;;5108111;28;20043;-76
2022/03/14 09:16:44;;;;;;;0.00;0.00;;;;;18.70;100448.00;;;;5123832;27;20809;-76
2022/03/14 09:19:14;;;;;;;0.00;0.00;;;;;18.60;100448.00;;;;5108178;28;20053;-76
2022/03/14 09:21:46;;;;;;;0.00;0.00;;;;;18.70;100434.00;;;;5108763;28;20044;-77
2022/03/14 09:24:19;;;;;;;0.00;0.00;;;;;18.70;100438.00;;;;5124317;27;20093;-76
2022/03/14 09:26:48;;;;;;;0.00;0.00;;;;;18.70;100439.00;;;;5125109;27;20615;-76
2022/03/14 09:29:17;;;;;;;0.00;0.00;;;;;18.70;100431.00;;;;5108571;28;20100;-76
2022/03/14 09:31:47;;;;;;;0.00;0.00;;;;;18.70;100434.00;;;;5108558;27;20517;-76
2022/03/14 09:34:16;;;;;;;0.00;0.00;;;;;18.70;100453.00;;;;5106966;28;20467;-76
2022/03/14 09:36:46;;;;;;;0.00;0.00;;;;;18.60;100442.00;;;;5108600;28;20089;-76
2022/03/14 09:39:15;;;;;;;0.00;0.00;;;;;18.60;100455.00;;;;5089660;28;20415;-75
2022/03/14 09:41:48;;;;;;;0.00;0.00;;;;;18.50;100439.00;;;;5106315;28;20097;-76
2022/03/14 09:44:20;;;;;;;0.00;0.00;;;;;18.50;100462.00;;;;5107611;28;20112;-76
2022/03/14 09:46:55;;;;;;;0.00;0.00;;;;;18.60;100463.00;;;;5108270;28;20047;-76
2022/03/14 09:49:26;;;;;;;0.00;0.00;;;;;18.60;100478.00;;;;5123658;27;20044;-76
2022/03/14 09:51:56;;;;;;;0.00;0.00;;;;;18.60;100471.00;;;;5123570;27;20250;-80
2022/03/14 09:54:26;;;;;;;0.00;0.00;;;;;18.60;100483.00;;;;5122716;27;20040;-77
2022/03/14 09:57:01;;;;;;;0.00;0.00;;;;;18.80;100462.00;;;;5107116;28;20542;-82
2022/03/14 09:59:32;;;;;;;0.00;0.00;;;;;18.90;100458.00;;;;5105704;28;20047;-77
2022/03/14 10:02:02;;;;;;;0.00;0.00;;;;;19.00;100461.00;;;;5122729;27;20058;-76
2022/03/14 10:04:32;;;;;;;0.00;0.00;;;;;19.20;100462.00;;;;5106996;28;20046;-76
2022/03/14 10:07:02;;;;;;;0.00;0.00;;;;;19.30;100468.00;;;;5106156;28;20292;-77
2022/03/14 10:09:31;;;;;;;0.00;0.00;;;;;19.40;100460.00;;;;5107004;28;20043;-76
2022/03/14 10:12:01;;;;;;;0.00;0.00;;;;;19.40;100480.00;;;;5107459;28;20043;-77
2022/03/14 10:14:31;;;;;;;0.00;0.00;;;;;19.50;100477.00;;;;5107011;28;20441;-77
2022/03/14 10:17:02;;;;;;;0.00;0.00;;;;;19.60;100493.00;;;;5107569;28;20059;-76
2022/03/14 10:19:34;;;;;;;0.00;0.00;;;;;19.70;100486.00;;;;5122615;27;20121;-76
2022/03/14 10:22:15;;;;;;;0.00;0.00;;;;;19.80;100467.00;;;;5106962;28;20482;-77
2022/03/14 10:24:47;;;;;;;0.00;0.00;;;;;20.00;100489.00;;;;5123024;27;20054;-76
2022/03/14 10:27:22;;;;;;;0.00;0.00;;;;;20.20;100484.00;;;;5121578;27;20040;-77
2022/03/14 10:29:51;;;;;;;;;;;;;20.30;100498.00;;;;5106168;27;20040;-77
2022/03/14 10:32:39;;;;;;;0.00;0.00;;;;;20.60;100476.00;;;;5106915;28;19923;-77
2022/03/14 10:35:10;;;;;;;0.00;0.00;;;;;21.00;100486.00;;;;5107211;28;20049;-77
2022/03/14 10:37:57;;;;;;;0.00;0.00;;;;;21.20;100472.00;;;;5108290;28;20039;-76
2022/03/14 10:40:40;;;;;;;0.00;0.00;;;;;21.40;100487.00;;;;5107087;28;20052;-76
2022/03/14 10:43:30;;;;;;;0.00;0.00;;;;;21.50;100493.00;;;;5122730;27;20035;-77
2022/03/14 10:46:04;;;;;;;0.00;0.00;;;;;21.40;100501.00;;;;5107770;28;20039;-76
2022/03/14 10:48:35;;;;;;;0.00;0.00;;;;;21.20;100506.00;;;;5122711;27;20552;-79
2022/03/14 10:51:10;;;;;;;0.00;0.00;;;;;21.10;100501.00;;;;5107034;28;20042;-77
2022/03/14 10:53:43;;;;;;;0.00;0.00;;;;;21.00;100516.00;;;;5107027;27;20086;-77
2022/03/14 10:56:14;;;;;;;0.00;0.00;;;;;21.00;100510.00;;;;5106242;28;20130;-77
2022/03/14 10:58:43;;;;;;;0.00;0.00;;;;;21.00;100512.00;;;;5106794;28;20039;-76
2022/03/14 11:01:13;;;;;;;0.00;0.00;;;;;21.10;100510.00;;;;5106539;28;20047;-82
2022/03/14 11:03:45;;;;;;;0.00;0.00;;;;;21.40;100520.00;;;;5105628;28;20067;-76
2022/03/14 11:06:17;;;;;;;0.00;0.00;;;;;21.60;100497.00;;;;5106984;28;20089;-75
2022/03/14 11:08:48;;;;;;;0.00;0.00;;;;;21.80;100505.00;;;;5108593;28;20075;-77
2022/03/14 11:11:21;;;;;;;0.00;0.00;;;;;22.20;100504.00;;;;5107296;28;20059;-75
2022/03/14 11:13:52;;;;;;;0.00;0.00;;;;;22.40;100510.00;;;;5110755;28;20059;-76
2022/03/14 11:16:23;;;;;;;0.00;0.00;;;;;22.60;100522.00;;;;5114043;28;20078;-75
2022/03/14 11:18:54;;;;;;;0.00;0.00;;;;;22.50;100507.00;;;;5130320;27;20040;-76
2022/03/14 11:21:27;;;;;;;0.00;0.00;;;;;22.60;100512.00;;;;5116401;27;20039;-79
2022/03/14 11:24:00;;;;;;;0.00;0.00;;;;;22.40;100514.00;;;;5130116;27;20509;-77
2022/03/14 11:26:31;;;;;;;0.00;0.00;;;;;22.30;100521.00;;;;5114067;27;20043;-77
2022/03/14 11:29:01;;;;;;;0.00;0.00;;;;;22.20;100513.00;;;;5137074;28;20016;-78
2022/03/14 11:31:30;;;;;;;0.00;0.00;;;;;22.20;100511.00;;;;5155035;27;20047;-77
2022/03/14 11:34:03;;;;;;;0.00;0.00;;;;;21.90;100520.00;;;;5138252;28;20035;-78
2022/03/14 11:36:34;;;;;;;0.00;0.00;;;;;21.80;100528.00;;;;5154284;27;20073;-78
2022/03/14 11:39:04;;;;;;;0.00;0.00;;;;;21.60;100530.00;;;;5136798;28;20049;-82
2022/03/14 11:41:34;;;;;;;0.00;0.00;;;;;21.70;100512.00;;;;5117221;27;20529;-79
2022/03/14 11:44:04;;;;;;;0.00;0.00;;;;;21.60;100526.00;;;;5128770;27;20043;-78
2022/03/14 11:46:38;;;;;;;1.35;1.25;;;;;21.70;100515.00;;;;5111673;28;20108;-77
2022/03/14 11:49:15;;;;;;;0.00;0.00;;;;;21.70;100541.00;;;;5115213;27;20043;-77
2022/03/14 11:51:47;;;;;;;0.00;0.00;;;;;21.70;100527.00;;;;5113130;27;20575;-77
2022/03/14 11:54:17;;;;;;;0.00;0.00;;;;;21.70;100539.00;;;;5112722;27;20464;-78
2022/03/14 11:56:57;;;;;;;0.00;0.00;;;;;21.80;100524.00;;;;5110650;27;20051;-77
2022/03/14 11:59:32;;;;;;;0.00;0.00;;;;;21.80;100529.00;;;;5113049;28;20273;-77
2022/03/14 12:02:05;;;;;;;0.00;0.00;;;;;21.90;100546.00;;;;5111739;28;20040;-81
2022/03/14 12:04:39;;;;;;;0.00;0.00;;;;;22.00;100538.00;;;;5128988;27;20522;-76
2022/03/14 12:07:12;;;;;;;0.00;0.00;;;;;22.00;100547.00;;;;5128896;27;20040;-78
2022/03/14 12:09:45;;;;;;;0.00;0.00;;;;;22.10;100547.00;;;;5111528;28;20054;-78
2022/03/14 12:12:15;;;;;;;0.00;0.00;;;;;22.10;100547.00;;;;5112943;27;20039;-78
2022/03/14 12:14:56;;;;;;;0.00;0.00;;;;;22.00;100535.00;;;;5128334;27;20055;-77
2022/03/14 12:17:27;;;;;;;;;;;;;22.30;100549.00;;;;5111659;28;20104;-77
2022/03/14 12:19:59;;;;;;;0.00;0.00;;;;;22.50;100543.00;;;;5112831;27;19920;-76
2022/03/14 12:22:43;;;;;;;0.00;0.00;;;;;22.60;100552.00;;;;5112710;28;20627;-78
2022/03/14 12:25:33;;;;;;;0.00;0.00;;;;;22.60;100544.00;;;;5125722;27;20054;-77